Aérodrome :
LOGIN :

S'inscrire | Disclaimer

   EN    FR    IT 

 










Légende :    VFR   VFR Marginal   IFR   IFR Intensif   IFR Très Intensif
Visi : 
Plafond : 
>= 8 km
>= 3000ft
5 à 8 km
1000 à 3000 ft
1500m à 5 km
500 à 1000 ft
800 à 1500m
200 à 500 ft
< 800m
< 200 ft
Symboles :   Orages  Brouillard  Fortes neiges  Fortes précipitations  Vent > 20 kt
SIGMETs :   Divers  Orages  Givrage  Turbulence  Onde Orograph.  Cendres Volcan.






- Altitude de l'aérodrome : 70 ft
- Code IATA : WBG


ETNS - Schleswig

DERNIER METAR :
  • 011920Z 26012KT 9999 FEW018 BKN058 06/03 Q1014 BLU BLU TEMPO WHT

METARs EXPIRÉS :
  • 011820Z 27013KT 9999 FEW018 BKN055 06/03 Q1014 BLU BLU TEMPO WHT
  • 011720Z 28013KT 9999 FEW018 BKN055 07/03 Q1014 BLU BLU TEMPO WHT

TAF TAF ETNS
Valide du 01 à 17h jusqu'au 02 à 02h UTC


011616Z 0117/0202 27015G25KT 9999 NSW SCT015 BKN050
TEMPO 0117/0120 29018G28KT 7000 -RA SCT012 BKN015
TEMPO 0120/0202 25012G22KT 6000 -RA BKN012 BY ETGL



MET'MAP, la Météo Aéronautique d'un coup d'oeil ! - Copyright ORBIFLY Décembre 2007 - Disclaimer

ORBIFLY MET'MAP TEAM :

Programmation & Développement : Alexandra Zaïnal
Sur une idée originale de : Baudouin d'Aumeries
Assistance à la programmation : Marc-Olivier Méhu
Soutien technique & logistique : Manuel Goepfert

Contact : metmap@orbifly.com




SOURCES & CREDITS :

   NOAA